createdAt,value
2018-08-06T00:00:19.672Z,17.61
2018-08-06T00:03:24.705Z,17.57
2018-08-06T00:06:29.960Z,17.57
2018-08-06T00:09:35.134Z,17.50
2018-08-06T00:12:40.120Z,17.46
2018-08-06T00:15:45.262Z,17.44
2018-08-06T00:18:50.830Z,17.45
2018-08-06T00:21:55.980Z,17.42
2018-08-06T00:25:01.875Z,17.40
2018-08-06T00:28:07.699Z,17.37
2018-08-06T00:31:13.761Z,17.35
2018-08-06T00:34:18.566Z,17.28
2018-08-06T00:37:24.141Z,17.29
2018-08-06T00:40:29.768Z,17.28
2018-08-06T00:43:34.938Z,17.31
2018-08-06T00:46:40.152Z,17.33
2018-08-06T00:49:45.369Z,17.32
2018-08-06T00:52:50.182Z,17.31
2018-08-06T00:55:55.420Z,17.30
2018-08-06T00:59:00.270Z,17.31
2018-08-06T01:02:05.829Z,17.29
2018-08-06T01:05:12.077Z,17.25
2018-08-06T01:08:17.524Z,17.25
2018-08-06T01:11:23.380Z,17.22
2018-08-06T01:14:28.153Z,17.19
2018-08-06T01:17:33.387Z,17.23
2018-08-06T01:20:38.537Z,17.19
2018-08-06T01:23:43.355Z,17.16
2018-08-06T01:26:48.379Z,17.13
2018-08-06T01:29:53.209Z,17.10
2018-08-06T01:32:58.400Z,17.07
2018-08-06T01:36:04.098Z,17.03
2018-08-06T01:39:12.232Z,17.00
2018-08-06T01:42:17.632Z,16.96
2018-08-06T01:45:23.464Z,16.96
2018-08-06T01:48:29.210Z,16.91
2018-08-06T01:51:34.844Z,16.91
2018-08-06T01:54:39.682Z,16.83
2018-08-06T01:57:45.341Z,16.84
2018-08-06T02:00:50.941Z,16.81
2018-08-06T02:03:57.898Z,16.75
2018-08-06T02:07:02.727Z,16.75
2018-08-06T02:10:10.761Z,16.72
2018-08-06T02:13:17.007Z,16.71
2018-08-06T02:16:21.855Z,16.69
2018-08-06T02:19:27.291Z,16.65
2018-08-06T02:22:35.216Z,16.62
2018-08-06T02:25:41.033Z,16.58
2018-08-06T02:28:46.548Z,16.61
2018-08-06T02:31:51.481Z,16.56
2018-08-06T02:34:56.589Z,16.51
2018-08-06T02:38:02.233Z,16.47
2018-08-06T02:41:07.059Z,16.43
2018-08-06T02:44:12.038Z,16.42
2018-08-06T02:47:17.406Z,16.41
2018-08-06T02:50:23.191Z,16.39
2018-08-06T02:53:29.230Z,16.35
2018-08-06T02:56:34.935Z,16.31
2018-08-06T02:59:40.238Z,16.26
2018-08-06T03:02:47.623Z,16.25
2018-08-06T03:05:54.286Z,16.21
2018-08-06T03:08:59.585Z,16.19
2018-08-06T03:12:05.608Z,16.15
2018-08-06T03:15:11.485Z,16.11
2018-08-06T03:18:16.281Z,16.12
2018-08-06T03:21:21.810Z,16.06
2018-08-06T03:24:26.599Z,16.00
2018-08-06T03:27:32.467Z,16.01
2018-08-06T03:30:37.255Z,15.93
2018-08-06T03:33:42.111Z,15.92
2018-08-06T03:36:47.787Z,15.87
2018-08-06T03:39:52.926Z,15.82
2018-08-06T03:42:58.102Z,15.79
2018-08-06T03:46:02.905Z,15.79
2018-08-06T03:49:07.735Z,15.75
2018-08-06T03:52:13.368Z,15.73
2018-08-06T03:55:18.838Z,15.69
2018-08-06T03:58:24.190Z,15.71
2018-08-06T04:01:29.340Z,15.65
2018-08-06T04:04:35.201Z,15.61
2018-08-06T04:07:40.554Z,15.61
2018-08-06T04:10:46.718Z,15.61
2018-08-06T04:13:52.349Z,15.58
2018-08-06T04:16:57.129Z,15.58
2018-08-06T04:20:02.470Z,15.53
2018-08-06T04:23:07.840Z,15.49
2018-08-06T04:26:12.617Z,15.48
2018-08-06T04:29:17.653Z,15.53
2018-08-06T04:32:22.522Z,15.44
2018-08-06T04:35:27.683Z,15.48
2018-08-06T04:38:33.343Z,15.48
2018-08-06T04:41:38.315Z,15.46
2018-08-06T04:44:43.695Z,15.42
2018-08-06T04:47:48.490Z,15.41
2018-08-06T04:50:53.786Z,15.42
2018-08-06T04:53:58.590Z,15.43
2018-08-06T04:57:03.942Z,15.44
2018-08-06T05:00:11.011Z,15.43
2018-08-06T05:03:16.850Z,15.38
2018-08-06T05:06:22.065Z,15.40
2018-08-06T05:09:26.898Z,15.44
2018-08-06T05:12:32.571Z,15.43
2018-08-06T05:15:37.748Z,15.49
2018-08-06T05:18:42.882Z,15.57
2018-08-06T05:21:47.969Z,15.61
2018-08-06T05:24:53.437Z,15.63
2018-08-06T05:27:58.681Z,15.65
2018-08-06T05:31:04.517Z,15.63
2018-08-06T05:34:10.547Z,15.67
2018-08-06T05:37:15.645Z,15.76
2018-08-06T05:40:21.017Z,15.79
2018-08-06T05:43:26.430Z,15.86
2018-08-06T05:46:32.335Z,15.91
2018-08-06T05:49:37.773Z,15.97
2018-08-06T05:52:43.968Z,16.04
2018-08-06T05:55:50.683Z,16.10
2018-08-06T05:58:56.786Z,16.16
2018-08-06T06:02:02.470Z,16.24
2018-08-06T06:05:07.538Z,16.34
2018-08-06T06:08:12.833Z,16.42
2018-08-06T06:11:17.981Z,16.50
2018-08-06T06:14:23.104Z,16.56
2018-08-06T06:17:29.117Z,16.64
2018-08-06T06:20:35.133Z,16.69
2018-08-06T06:23:41.005Z,16.76
2018-08-06T06:26:46.333Z,16.80
2018-08-06T06:29:52.526Z,16.87
2018-08-06T06:32:58.116Z,16.93
2018-08-06T06:36:03.217Z,16.98
2018-08-06T06:39:10.376Z,17.04
2018-08-06T06:42:15.705Z,17.10
2018-08-06T06:45:21.872Z,17.16
2018-08-06T06:48:27.761Z,17.22
2018-08-06T06:51:34.130Z,17.29
2018-08-06T06:54:40.318Z,17.32
2018-08-06T06:57:47.737Z,17.40
2018-08-06T07:00:52.845Z,17.47
2018-08-06T07:03:58.981Z,17.52
2018-08-06T07:07:04.101Z,17.58
2018-08-06T07:10:11.633Z,17.63
2018-08-06T07:13:17.097Z,17.69
2018-08-06T07:16:22.435Z,17.76
2018-08-06T07:19:29.022Z,17.81
2018-08-06T07:22:34.954Z,17.87
2018-08-06T07:25:41.134Z,17.92
2018-08-06T07:28:47.023Z,17.99
2018-08-06T07:31:53.194Z,18.05
2018-08-06T07:34:58.878Z,18.12
2018-08-06T07:38:04.989Z,18.18
2018-08-06T07:41:10.902Z,18.24
2018-08-06T07:44:16.859Z,18.32
2018-08-06T07:47:22.518Z,18.38
2018-08-06T07:50:27.620Z,18.44
2018-08-06T07:53:32.429Z,18.53
2018-08-06T07:56:37.749Z,18.59
2018-08-06T07:59:43.901Z,18.67
2018-08-06T08:02:48.973Z,18.74
2018-08-06T08:05:54.416Z,18.82
2018-08-06T08:09:00.753Z,18.92
2018-08-06T08:12:06.470Z,19.00
2018-08-06T08:15:14.321Z,19.10
2018-08-06T08:18:19.804Z,19.18
2018-08-06T08:21:24.650Z,19.27
2018-08-06T08:24:30.168Z,19.37
2018-08-06T08:27:36.736Z,19.47
2018-08-06T08:30:43.789Z,19.57
2018-08-06T08:33:49.819Z,19.65
2018-08-06T08:36:55.725Z,19.77
2018-08-06T08:40:01.742Z,19.87
2018-08-06T08:43:07.374Z,19.98
2018-08-06T08:46:12.481Z,20.10
2018-08-06T08:49:18.149Z,20.22
2018-08-06T08:52:24.667Z,20.33
2018-08-06T08:55:30.213Z,20.46
2018-08-06T08:58:35.488Z,20.56
2018-08-06T09:01:41.700Z,20.68
2018-08-06T09:04:47.156Z,20.79
2018-08-06T09:07:53.565Z,20.89
2018-08-06T09:10:59.380Z,21.01
2018-08-06T09:14:04.546Z,21.13
2018-08-06T09:17:09.569Z,21.26
2018-08-06T09:20:14.664Z,21.36
2018-08-06T09:23:20.609Z,21.49
2018-08-06T09:26:26.414Z,21.61
2018-08-06T09:29:31.534Z,21.73
2018-08-06T09:32:36.868Z,21.86
2018-08-06T09:35:43.170Z,21.99
2018-08-06T09:38:49.344Z,22.13
2018-08-06T09:41:55.150Z,22.22
2018-08-06T09:45:01.656Z,22.35
2018-08-06T09:48:07.169Z,22.47
2018-08-06T09:51:12.490Z,22.64
2018-08-06T09:54:17.962Z,22.80
2018-08-06T09:57:23.125Z,23.01
2018-08-06T10:00:34.220Z,23.16
2018-08-06T10:03:40.369Z,23.27
2018-08-06T10:06:46.103Z,23.42
2018-08-06T10:09:52.146Z,23.55
2018-08-06T10:12:58.198Z,23.67
2018-08-06T10:16:04.211Z,23.77
2018-08-06T10:19:10.275Z,23.81
2018-08-06T10:22:15.662Z,23.86
2018-08-06T10:25:21.666Z,23.88
2018-08-06T10:28:27.114Z,23.93
2018-08-06T10:31:32.521Z,23.95
2018-08-06T10:34:38.553Z,23.97
2018-08-06T10:37:43.849Z,24.02
2018-08-06T10:40:51.216Z,24.06
2018-08-06T10:43:56.625Z,24.14
2018-08-06T10:47:02.240Z,24.21
2018-08-06T10:50:08.293Z,24.28
2018-08-06T10:53:13.753Z,24.33
2018-08-06T10:56:19.533Z,24.43
2018-08-06T10:59:24.991Z,24.47
2018-08-06T11:02:32.139Z,24.50
2018-08-06T11:05:38.109Z,24.53
2018-08-06T11:08:44.072Z,24.57
2018-08-06T11:11:49.609Z,24.58
2018-08-06T11:14:55.653Z,24.66
2018-08-06T11:18:01.773Z,24.69
2018-08-06T11:21:06.914Z,24.74
2018-08-06T11:24:12.938Z,24.76
2018-08-06T11:27:19.298Z,24.79
2018-08-06T11:30:24.698Z,24.82
2018-08-06T11:33:30.533Z,24.87
2018-08-06T11:36:36.708Z,24.93
2018-08-06T11:39:41.998Z,24.99
2018-08-06T11:42:47.779Z,25.03
2018-08-06T11:45:53.964Z,25.12
2018-08-06T11:48:59.831Z,25.17
2018-08-06T11:52:06.338Z,25.23
2018-08-06T11:55:12.441Z,25.29
2018-08-06T11:58:18.764Z,25.33
2018-08-06T12:01:24.770Z,25.39
2018-08-06T12:04:29.960Z,25.46
2018-08-06T12:07:36.140Z,25.52
2018-08-06T12:10:43.468Z,25.60
2018-08-06T12:13:49.412Z,25.68
2018-08-06T12:16:55.796Z,25.76
2018-08-06T12:20:02.164Z,25.85
2018-08-06T12:23:07.273Z,25.93
2018-08-06T12:26:13.317Z,26.00
2018-08-06T12:29:20.445Z,26.08
2018-08-06T12:32:26.161Z,26.16
2018-08-06T12:35:31.287Z,26.25
2018-08-06T12:38:48.005Z,26.34
2018-08-06T12:41:53.342Z,26.45
2018-08-06T12:44:59.477Z,26.50
2018-08-06T12:48:05.217Z,26.57
2018-08-06T12:51:11.809Z,26.64
2018-08-06T12:54:17.482Z,26.73
2018-08-06T12:57:24.781Z,26.82
2018-08-06T13:00:30.886Z,26.90
2018-08-06T13:03:36.398Z,26.95
2018-08-06T13:06:41.558Z,27.01
2018-08-06T13:09:47.709Z,27.09
2018-08-06T13:12:53.010Z,27.18
2018-08-06T13:15:58.371Z,27.26
2018-08-06T13:19:03.504Z,27.34
2018-08-06T13:22:08.865Z,27.42
2018-08-06T13:25:14.816Z,27.45
2018-08-06T13:28:20.071Z,27.52
2018-08-06T13:31:25.264Z,27.60
2018-08-06T13:34:32.333Z,27.71
2018-08-06T13:37:37.441Z,27.79
2018-08-06T13:40:42.988Z,27.87
2018-08-06T13:43:49.150Z,27.93
2018-08-06T13:46:55.506Z,28.00
2018-08-06T13:50:01.252Z,28.08
2018-08-06T13:53:06.642Z,28.12
2018-08-06T13:56:12.788Z,28.19
2018-08-06T13:59:18.229Z,28.25
2018-08-06T14:02:23.801Z,28.32
2018-08-06T14:05:29.885Z,28.39
2018-08-06T14:08:37.211Z,28.47
2018-08-06T14:11:42.309Z,28.52
2018-08-06T14:14:48.313Z,28.56
2018-08-06T14:17:53.859Z,28.64
2018-08-06T14:21:00.042Z,28.67
2018-08-06T14:24:06.023Z,28.69
2018-08-06T14:27:11.165Z,28.73
2018-08-06T14:30:17.973Z,28.79
2018-08-06T14:33:23.065Z,28.83
2018-08-06T14:36:28.168Z,28.87
2018-08-06T14:39:33.613Z,28.94
2018-08-06T14:42:39.526Z,28.95
2018-08-06T14:45:45.445Z,28.99
2018-08-06T14:48:51.106Z,29.02
2018-08-06T14:51:56.970Z,29.09
2018-08-06T14:55:03.352Z,29.12
2018-08-06T14:58:09.623Z,29.19
2018-08-06T15:01:15.596Z,29.23
2018-08-06T15:04:21.340Z,29.24
2018-08-06T15:07:27.349Z,29.26
2018-08-06T15:10:32.954Z,29.26
2018-08-06T15:13:38.525Z,29.28
2018-08-06T15:16:43.592Z,29.29
2018-08-06T15:19:49.721Z,29.30
2018-08-06T15:22:55.006Z,29.30
2018-08-06T15:26:00.602Z,29.32
2018-08-06T15:29:05.977Z,29.29
2018-08-06T15:32:11.141Z,29.33
2018-08-06T15:35:16.450Z,29.29
2018-08-06T15:38:22.281Z,29.31
2018-08-06T15:41:28.616Z,29.31
2018-08-06T15:44:35.612Z,29.27
2018-08-06T15:47:42.182Z,29.23
2018-08-06T15:50:47.634Z,29.19
2018-08-06T15:53:53.758Z,29.13
2018-08-06T15:56:58.857Z,29.09
2018-08-06T16:00:05.481Z,29.04
2018-08-06T16:03:10.574Z,29.03
2018-08-06T16:06:15.887Z,29.01
2018-08-06T16:09:22.029Z,28.98
2018-08-06T16:12:28.502Z,28.97
2018-08-06T16:15:34.623Z,28.97
2018-08-06T16:18:46.796Z,28.93
2018-08-06T16:21:52.285Z,28.90
2018-08-06T16:24:58.243Z,28.88
2018-08-06T16:28:03.849Z,28.86
2018-08-06T16:31:10.281Z,28.82
2018-08-06T16:34:16.657Z,28.77
2018-08-06T16:37:22.545Z,28.74
2018-08-06T16:40:28.188Z,28.70
2018-08-06T16:43:34.013Z,28.60
2018-08-06T16:46:39.561Z,28.51
2018-08-06T16:49:45.846Z,28.41
2018-08-06T16:52:51.625Z,28.35
2018-08-06T16:55:57.564Z,28.26
2018-08-06T16:59:02.957Z,28.18
2018-08-06T17:02:09.191Z,28.08
2018-08-06T17:05:15.387Z,27.99
2018-08-06T17:08:20.845Z,27.95
2018-08-06T17:11:26.576Z,27.85
2018-08-06T17:14:32.627Z,27.76
2018-08-06T17:17:37.948Z,27.69
2018-08-06T17:20:43.985Z,27.59
2018-08-06T17:23:49.809Z,27.53
2018-08-06T17:26:55.621Z,27.43
2018-08-06T17:30:01.798Z,27.35
2018-08-06T17:33:07.848Z,27.26
2018-08-06T17:36:13.603Z,27.18
2018-08-06T17:39:18.723Z,27.10
2018-08-06T17:42:23.828Z,27.03
2018-08-06T17:45:29.509Z,26.96
2018-08-06T17:48:35.958Z,26.88
2018-08-06T17:51:42.029Z,26.82
2018-08-06T17:54:47.381Z,26.74
2018-08-06T17:57:53.453Z,26.68
2018-08-06T18:00:59.136Z,26.62
2018-08-06T18:04:04.919Z,26.57
2018-08-06T18:07:10.066Z,26.52
2018-08-06T18:10:17.345Z,26.45
2018-08-06T18:13:24.465Z,26.38
2018-08-06T18:16:30.097Z,26.29
2018-08-06T18:19:35.310Z,26.21
2018-08-06T18:22:40.830Z,26.14
2018-08-06T18:25:47.256Z,26.06
2018-08-06T18:28:54.098Z,25.98
2018-08-06T18:32:00.291Z,25.90
2018-08-06T18:35:06.871Z,25.85
2018-08-06T18:38:12.393Z,25.77
2018-08-06T18:41:18.422Z,25.70
2018-08-06T18:44:24.863Z,25.64
2018-08-06T18:47:30.614Z,25.55
2018-08-06T18:50:35.679Z,25.48
2018-08-06T18:53:42.210Z,25.41
2018-08-06T18:56:48.242Z,25.36
2018-08-06T18:59:54.737Z,25.30
2018-08-06T19:03:00.668Z,25.23
2018-08-06T19:06:05.506Z,25.15
2018-08-06T19:09:18.043Z,25.09
2018-08-06T19:12:28.577Z,25.00
2018-08-06T19:15:34.376Z,24.93
2018-08-06T19:18:44.484Z,24.83
2018-08-06T19:21:51.591Z,24.76
2018-08-06T19:25:03.122Z,24.67
2018-08-06T19:28:08.932Z,24.58
2018-08-06T19:31:19.438Z,24.49
2018-08-06T19:34:25.367Z,24.40
2018-08-06T19:37:37.097Z,24.30
2018-08-06T19:40:42.301Z,24.22
2018-08-06T19:43:48.155Z,24.13
2018-08-06T19:46:55.018Z,24.05
2018-08-06T19:50:06.564Z,23.99
2018-08-06T19:53:12.005Z,23.90
2018-08-06T19:56:17.171Z,23.82
2018-08-06T19:59:22.711Z,23.76
2018-08-06T20:02:28.930Z,23.69
2018-08-06T20:05:34.652Z,23.60
2018-08-06T20:08:40.502Z,23.54
2018-08-06T20:11:45.926Z,23.48
2018-08-06T20:14:51.015Z,23.42
2018-08-06T20:17:55.834Z,23.36
2018-08-06T20:21:01.095Z,23.30
2018-08-06T20:24:07.161Z,23.24
2018-08-06T20:27:12.826Z,23.16
2018-08-06T20:30:20.653Z,23.10
2018-08-06T20:33:26.030Z,23.05
2018-08-06T20:36:31.282Z,23.00
2018-08-06T20:39:37.196Z,22.91
2018-08-06T20:42:44.126Z,22.84
2018-08-06T20:45:49.235Z,22.77
2018-08-06T20:48:54.325Z,22.70
2018-08-06T20:51:59.858Z,22.66
2018-08-06T20:59:10.211Z,22.49
2018-08-06T21:02:57.010Z,22.41
2018-08-06T21:06:43.935Z,22.34
2018-08-06T21:10:23.590Z,22.24
2018-08-06T21:14:01.956Z,22.18
2018-08-06T21:17:33.543Z,22.11
2018-08-06T21:21:07.973Z,22.04
2018-08-06T21:24:39.427Z,21.98
2018-08-06T21:28:15.472Z,21.87
2018-08-06T21:31:49.312Z,21.83
2018-08-06T21:34:58.933Z,21.77
2018-08-06T21:38:05.209Z,21.73
2018-08-06T21:41:10.833Z,21.66
2018-08-06T21:44:16.470Z,21.64
2018-08-06T21:47:21.552Z,21.58
2018-08-06T21:50:27.476Z,21.45
2018-08-06T21:53:32.931Z,21.43
2018-08-06T21:56:38.138Z,21.40
2018-08-06T21:59:43.613Z,21.34
2018-08-06T22:02:49.388Z,21.28
2018-08-06T22:05:55.233Z,21.26
2018-08-06T22:09:01.682Z,21.23
2018-08-06T22:12:07.561Z,21.16
2018-08-06T22:15:13.543Z,21.10
2018-08-06T22:18:18.339Z,21.12
2018-08-06T22:21:23.945Z,20.99
2018-08-06T22:24:29.025Z,20.97
2018-08-06T22:27:34.308Z,20.93
2018-08-06T22:30:40.584Z,20.87
2018-08-06T22:33:46.542Z,20.81
2018-08-06T22:36:52.148Z,20.80
2018-08-06T22:39:57.610Z,20.74
2018-08-06T22:43:03.532Z,20.68
2018-08-06T22:46:08.689Z,20.66
2018-08-06T22:49:14.358Z,20.60
2018-08-06T22:52:19.861Z,20.57
2018-08-06T22:55:24.994Z,20.53
2018-08-06T22:58:38.598Z,20.49
2018-08-06T23:01:44.477Z,20.42
2018-08-06T23:04:49.809Z,20.40
2018-08-06T23:07:56.345Z,20.36
2018-08-06T23:11:02.133Z,20.30
2018-08-06T23:14:07.383Z,20.25
2018-08-06T23:17:13.035Z,20.23
2018-08-06T23:20:19.361Z,20.17
2018-08-06T23:23:25.221Z,20.13
2018-08-06T23:26:30.545Z,20.07
2018-08-06T23:29:36.367Z,20.00
2018-08-06T23:32:42.941Z,19.95
2018-08-06T23:35:48.776Z,19.91
2018-08-06T23:38:54.529Z,19.84
2018-08-06T23:42:00.437Z,19.79
2018-08-06T23:45:06.634Z,19.73
2018-08-06T23:48:11.998Z,19.69
2018-08-06T23:51:17.205Z,19.65
2018-08-06T23:54:22.258Z,19.58
2018-08-06T23:57:27.829Z,19.52
